Latest Weather Observations for Sunshine Coast Airport

IDQ60901

Issued at 7:31 pm EST Sunday 29 March 2020 (issued every 10 minutes, with the page automatically refreshed every 10 minutes)

About weather observations | Map of Brisbane area stations | Latest observations for Brisbane area | Other Formats
Station Details ID: 040861 Name: SUNSHINE COAST AIRPORT Lat: -26.60 Lon: 153.09 Height: 3.42 m
Data from the previous 72 hours. | See also: Recent months at Sunshine Coast Airport
Date/Time
EST
Temp
°C
App
Temp
°C
Dew
Point
°C
Rel
Hum
%
Delta-T
°C
Wind Press
QNH
hPa
Press
MSL
hPa
Rain since
9am
mm
Dir  Spd
km/h
Gust
km/h
Spd
kts
Gust
kts
29/07:30pm 23.9 27.6 23.9 100 0.0 ESE 11 17 6 9 1017.7 1017.6 0.2
29/07:00pm 24.0 27.4 24.0 100 0.0 ESE 13 17 7 9 1017.4 1017.3 0.2
29/06:30pm 24.1 27.2 24.1 100 0.0 ESE 15 20 8 11 1017.3 1017.2 0.2
29/06:00pm 24.1 27.2 24.1 100 0.0 ESE 15 20 8 11 1016.9 1016.8 0.2
29/05:30pm 24.1 27.2 24.1 100 0.0 ESE 15 20 8 11 1016.7 1016.6 0.2
29/05:00pm 24.5 27.8 24.5 100 0.0 ESE 15 22 8 12 1016.4 1016.3 0.2
29/04:30pm 24.9 28.1 24.9 100 0.0 SE 17 24 9 13 1016.2 1016.1 0.2
29/04:00pm 25.5 28.7 25.5 100 0.0 SE 19 24 10 13 1016.2 1016.1 0.2
29/03:30pm 25.9 29.3 25.9 100 0.0 SE 19 24 10 13 1016.0 1015.9 0.2
29/03:00pm 26.1 30.0 26.1 100 0.0 SE 17 22 9 12 1016.2 1016.1 0.2
29/02:30pm 26.2 30.6 26.2 100 0.0 SE 15 20 8 11 1016.3 1016.2 0.2
29/02:00pm 25.8 29.5 25.8 100 0.0 SE 17 20 9 11 1016.5 1016.4 0.2
29/01:30pm 25.6 29.6 25.6 100 0.0 SE 15 19 8 10 1016.7 1016.6 0.2
29/01:00pm 25.7 28.8 25.7 100 0.0 SE 20 28 11 15 1016.9 1016.8 0.2
29/12:30pm 25.7 29.0 25.7 100 0.0 SE 19 22 10 12 1017.2 1017.1 0.2
29/12:00pm 25.2 28.6 25.2 100 0.0 SE 17 22 9 12 1017.6 1017.5 0.2
29/11:30am 25.3 28.7 25.3 100 0.0 SE 17 22 9 12 1018.0 1017.9 0.2
29/11:00am 25.1 28.4 25.1 100 0.0 SE 17 22 9 12 1018.3 1018.2 0.2
29/10:30am 25.2 28.9 25.2 100 0.0 SE 15 20 8 11 1018.5 1018.4 0.2
29/10:00am 24.3 27.5 24.3 100 0.0 SSE 15 20 8 11 1018.7 1018.6 0.2
29/09:30am 22.8 25.9 22.8 100 0.0 SSW 11 15 6 8 1018.9 1018.8 0.0
29/09:00am 21.6 24.0 21.6 100 0.0 SSW 11 17 6 9 1018.8 1018.7 3.0
29/08:30am 21.2 23.8 21.2 100 0.0 SSW 9 15 5 8 1018.8 1018.7 2.8
29/08:20am 21.1 22.9 21.1 100 0.0 SSW 13 17 7 9 1018.9 1018.8 2.8
29/08:03am 20.7 22.3 20.7 100 0.0 SSW 13 17 7 9 1019.0 1018.9 2.6
29/08:00am 20.7 22.3 20.7 100 0.0 SSW 13 17 7 9 1018.9 1018.8 2.6
29/07:30am 20.5 21.2 20.5 100 0.0 SSW 17 22 9 12 1018.6 1018.5 2.0
29/07:00am 20.2 20.8 20.2 100 0.0 SSW 17 24 9 13 1018.2 1018.1 2.0
29/06:30am 19.7 22.1 19.7 100 0.0 SW 6 9 3 5 1017.6 1017.5 2.0
29/06:00am 19.7 21.6 19.7 100 0.0 WSW 9 11 5 6 1017.2 1017.1 2.0
29/05:30am 19.6 21.8 19.6 100 0.0 WSW 7 11 4 6 1016.9 1016.8 2.0
29/05:00am 19.8 21.7 19.8 100 0.0 WSW 9 11 5 6 1016.5 1016.4 2.0
29/04:34am 20.3 20.9 20.3 100 0.0 SSW 17 20 9 11 1016.5 1016.4 2.0
29/04:30am 20.3 20.6 20.3 100 0.0 SSW 19 28 10 15 1016.5 1016.4 2.0
29/04:20am 20.3 22.1 20.3 100 0.0 S 11 26 6 14 1016.7 1016.6 2.0
29/04:00am 19.9 22.2 19.9 100 0.0 WSW 7 9 4 5 1016.6 1016.5 2.0
29/03:30am 20.1 22.2 20.1 100 0.0 SW 9 13 5 7 1016.6 1016.5 2.0
29/03:20am 20.1 21.8 20.1 100 0.0 SW 11 13 6 7 1016.6 1016.5 1.8
29/03:00am 20.0 22.4 20.0 100 0.0 SW 7 11 4 6 1016.8 1016.7 1.4
29/02:30am 19.6 20.7 19.6 100 0.0 WNW 13 15 7 8 1016.7 1016.6 1.4
29/02:00am 19.7 21.9 19.7 100 0.0 W 7 11 4 6 1017.2 1017.1 1.4
29/01:30am 19.9 21.9 19.9 100 0.0 WNW 9 9 5 5 1017.2 1017.1 1.4
29/01:20am 19.7 21.9 19.7 100 0.0 WNW 7 9 4 5 1017.4 1017.3 1.4
29/01:00am 19.8 21.7 19.8 100 0.0 W 9 11 5 6 1017.5 1017.4 1.4
29/12:48am 19.9 21.9 19.9 100 0.0 WSW 9 13 5 7 1017.7 1017.6 1.4
29/12:30am 19.9 22.4 19.9 100 0.0 WSW 6 11 3 6 1017.7 1017.6 1.4
29/12:15am 19.8 22.1 19.8 100 0.0 WSW 7 9 4 5 1017.9 1017.8 1.4
29/12:00am 19.8 22.3 19.8 100 0.0 W 6 9 3 5 1018.1 1018.0 1.4
 
Date/Time
EST
Temp
°C
App
Temp
°C
Dew
Point
°C
Rel
Hum
%
Delta-T
°C
Wind Press
QNH
hPa
Press
MSL
hPa
Rain since
9am
mm
Dir  Spd
km/h
Gust
km/h
Spd
kts
Gust
kts
28/11:56pm 19.9 22.2 19.9 100 0.0 W 7 11 4 6 1018.1 1018.0 1.4
28/11:30pm 19.4 21.7 19.4 100 0.0 W 6 7 3 4 1018.1 1018.0 1.2
28/11:00pm 19.8 22.3 19.8 100 0.0 SW 6 9 3 5 1018.0 1017.9 1.0
28/10:30pm 20.2 22.3 20.2 100 0.0 SSW 9 11 5 6 1018.3 1018.2 1.0
28/10:00pm 20.2 22.3 20.2 100 0.0 SW 9 11 5 6 1018.7 1018.6 1.0
28/09:30pm 20.4 22.2 20.4 100 0.0 SSW 11 13 6 7 1018.8 1018.7 1.0
28/09:00pm 20.7 23.4 20.7 100 0.0 SSW 7 11 4 6 1018.8 1018.7 1.0
28/08:30pm 20.8 23.2 20.8 100 0.0 SSW 9 11 5 6 1018.5 1018.4 1.0
28/08:00pm 20.9 23.3 20.9 100 0.0 SW 9 11 5 6 1018.4 1018.3 1.0
28/07:30pm 21.8 25.1 21.8 100 0.0 S 7 9 4 5 1018.2 1018.1 1.0
28/07:00pm 22.5 24.6 22.5 100 0.0 ESE 15 19 8 10 1018.0 1017.9 1.0
28/06:30pm 22.2 25.7 22.2 100 0.0 S 7 11 4 6 1018.1 1018.0 1.0
28/06:00pm 22.9 27.4 22.9 100 0.0 E 4 7 2 4 1018.0 1017.9 1.0
28/05:30pm 22.6 26.3 22.6 100 0.0 E 7 9 4 5 1017.7 1017.6 1.0
28/05:00pm 22.6 25.6 22.6 100 0.0 ESE 11 13 6 7 1017.5 1017.4 1.0
28/04:30pm 22.4 25.6 22.4 100 0.0 ENE 9 13 5 7 1017.4 1017.3 1.0
28/04:01pm 21.3 22.8 21.3 100 0.0 ESE 15 20 8 11 1017.5 1017.4 1.0
28/04:00pm 21.3 22.8 21.3 100 0.0 ESE 15 20 8 11 1017.6 1017.5 1.0
28/03:45pm 20.7 20.2 20.7 100 0.0 E 24 33 13 18 1017.6 1017.5 0.8
28/03:43pm 21.3 21.1 21.3 100 0.0 E 24 33 13 18 1017.6 1017.5 0.8
28/03:35pm 22.5 22.2 22.5 100 0.0 E 28 41 15 22 1017.5 1017.4 0.0
28/03:30pm 22.8 23.0 22.8 100 0.0 ESE 26 41 14 22 1017.5 1017.4 0.0
28/03:00pm 24.8 27.3 24.8 100 0.0 SSE 20 28 11 15 1017.4 1017.3 0.0
28/02:30pm 24.1 26.8 24.1 100 0.0 SSE 17 20 9 11 1017.6 1017.5 0.0
28/02:00pm 23.5 23.7 23.5 100 0.0 SE 28 39 15 21 1017.6 1017.5 0.0
28/01:30pm 25.3 27.0 25.3 100 0.0 SSE 26 35 14 19 1017.7 1017.6 0.0
28/01:00pm 25.6 27.1 25.6 100 0.0 SSE 28 37 15 20 1017.9 1017.8 0.0
28/12:30pm 24.9 26.0 24.9 100 0.0 SSE 28 35 15 19 1018.2 1018.1 0.0
28/12:00pm 25.1 25.9 25.1 100 0.0 SSE 30 41 16 22 1018.6 1018.5 0.0
28/11:30am 25.3 27.8 25.3 100 0.0 SSE 22 30 12 16 1019.0 1018.9 0.0
28/11:00am 24.7 26.8 24.7 100 0.0 SSE 22 32 12 17 1019.3 1019.2 0.0
28/10:30am 24.5 26.5 24.5 100 0.0 S 22 30 12 16 1019.5 1019.4 0.0
28/10:00am 23.5 24.5 23.5 100 0.0 S 24 35 13 19 1019.8 1019.7 0.0
28/09:30am 22.8 23.8 22.8 100 0.0 S 22 32 12 17 1019.7 1019.6 0.0
28/09:00am 22.3 23.4 22.3 100 0.0 S 20 28 11 15 1019.6 1019.5 24.2
28/08:30am 21.4 21.6 21.4 100 0.0 SSW 22 30 12 16 1019.5 1019.4 24.2
28/08:00am 20.5 20.7 20.5 100 0.0 S 20 28 11 15 1019.4 1019.3 24.2
28/07:30am 19.5 19.4 19.5 100 0.0 SSW 19 24 10 13 1019.0 1018.9 24.2
28/07:00am 19.1 18.8 19.1 100 0.0 SSW 19 24 10 13 1019.1 1019.0 24.2
28/06:42am 19.0 19.0 19.0 100 0.0 SSW 17 22 9 12 1019.0 1018.9 24.2
28/06:37am 19.0 19.4 19.0 100 0.0 SSW 15 22 8 12 1019.0 1018.9 24.2
28/06:30am 18.9 20.0 18.9 100 0.0 SSW 11 17 6 9 1018.9 1018.8 24.0
28/06:27am 18.9 19.6 18.9 100 0.0 SSW 13 17 7 9 1018.9 1018.8 24.0
28/06:16am 19.0 19.0 19.0 100 0.0 SSW 17 24 9 13 1019.0 1018.9 22.8
28/06:00am 19.0 19.0 19.0 100 0.0 SW 17 24 9 13 1018.5 1018.4 21.6
28/05:30am 19.0 18.5 19.0 100 0.0 SSW 20 28 11 15 1018.4 1018.3 21.2
28/05:02am 18.8 17.8 18.8 100 0.0 SSW 22 32 12 17 1018.2 1018.1 20.4
28/05:00am 18.8 17.4 18.8 100 0.0 SSW 24 32 13 17 1018.1 1018.0 20.4
28/04:36am 18.8 18.4 18.8 100 0.0 SSW 19 24 10 13 1018.2 1018.1 20.4
28/04:30am 18.8 19.5 18.8 100 0.0 SSW 13 22 7 12 1018.2 1018.1 20.2
28/04:10am 18.8 20.8 18.8 100 0.0 NE 6 7 3 4 1018.1 1018.0 18.2
28/04:07am 18.9 21.3 18.9 100 0.0 E 4 7 2 4 1018.0 1017.9 17.8
28/04:01am 18.9 21.3 18.9 100 0.0 S 4 11 2 6 1018.1 1018.0 17.6
28/04:00am 18.9 21.0 18.9 100 0.0 SSW 6 11 3 6 1018.1 1018.0 17.6
28/03:30am 19.2 18.7 19.2 100 0.0 SSW 20 30 11 16 1018.0 1017.9 16.6
28/03:18am 19.6 19.3 19.6 100 0.0 SSW 20 30 11 16 1017.9 1017.8 15.8
28/03:00am 20.0 19.5 20.0 100 0.0 SSW 22 28 12 15 1018.0 1017.9 15.4
28/02:30am 20.3 19.6 20.3 100 0.0 SSW 24 32 13 17 1018.2 1018.1 15.4
28/02:00am 20.2 20.4 20.2 100 0.0 S 19 24 10 13 1018.5 1018.4 15.4
28/01:30am 20.0 20.1 20.0 100 0.0 SSW 19 24 10 13 1018.7 1018.6 15.4
28/01:00am 19.9 20.0 19.9 100 0.0 SSW 19 24 10 13 1019.1 1019.0 15.4
28/12:30am 19.9 19.8 19.9 100 0.0 S 20 28 11 15 1019.3 1019.2 15.4
28/12:00am 20.3 20.6 20.3 100 0.0 S 19 24 10 13 1019.3 1019.2 15.4
 
Date/Time
EST
Temp
°C
App
Temp
°C
Dew
Point
°C
Rel
Hum
%
Delta-T
°C
Wind Press
QNH
hPa
Press
MSL
hPa
Rain since
9am
mm
Dir  Spd
km/h
Gust
km/h
Spd
kts
Gust
kts
27/11:30pm 20.3 20.4 20.3 100 0.0 S 20 24 11 13 1019.7 1019.6 15.4
27/11:00pm 20.2 20.8 20.2 100 0.0 SSW 17 22 9 12 1020.0 1019.9 15.4
27/10:30pm 20.4 20.5 20.4 100 0.0 S 20 26 11 14 1020.1 1020.0 15.4
27/10:09pm 20.3 20.4 20.3 100 0.0 SSW 20 32 11 17 1020.2 1020.1 15.4
27/10:00pm 20.3 20.4 20.3 100 0.0 S 20 26 11 14 1020.1 1020.0 15.4
27/09:39pm 20.1 21.8 20.1 100 0.0 SSW 11 15 6 8 1020.1 1020.0 15.2
27/09:30pm 20.1 21.4 20.1 100 0.0 SSE 13 20 7 11 1020.2 1020.1 15.2
27/09:18pm 19.9 21.9 19.9 100 0.0 NNE 9 13 5 7 1020.3 1020.2 14.8
27/09:00pm 19.9 21.1 19.9 100 0.0 SW 13 17 7 9 1020.3 1020.2 13.2
27/08:46pm 20.1 20.3 20.1 100 0.0 SSW 19 24 10 13 1020.3 1020.2 10.8
27/08:30pm 20.1 19.7 20.1 100 0.0 SSW 22 30 12 16 1020.4 1020.3 9.8
27/08:05pm 20.1 18.9 20.1 100 0.0 SSW 26 33 14 18 1020.4 1020.3 9.6
27/08:00pm 20.1 18.9 20.1 100 0.0 SSW 26 33 14 18 1020.3 1020.2 9.6
27/07:30pm 20.1 19.7 20.1 100 0.0 S 22 32 12 17 1020.2 1020.1 9.2
27/07:00pm 20.3 19.6 20.3 100 0.0 S 24 33 13 18 1020.0 1019.9 9.0
27/06:40pm 20.2 19.5 20.2 100 0.0 S 24 32 13 17 1019.9 1019.8 9.0
27/06:30pm 20.2 19.5 20.2 100 0.0 S 24 35 13 19 1019.7 1019.6 9.0
27/06:11pm 20.5 20.3 20.5 100 0.0 S 22 32 12 17 1019.8 1019.7 4.2
27/06:08pm 20.6 20.4 20.6 100 0.0 S 22 35 12 19 1019.7 1019.6 3.2
27/06:00pm 20.6 19.7 20.6 100 0.0 S 26 35 14 19 1019.6 1019.5 3.0
27/05:56pm 20.5 19.5 20.5 100 0.0 S 26 32 14 17 1019.6 1019.5 3.0
27/05:36pm 20.4 19.0 20.4 100 0.0 S 28 39 15 21 1019.5 1019.4 2.6
27/05:30pm 19.9 19.0 19.9 100 0.0 S 24 37 13 20 1019.3 1019.2 1.2
27/05:00pm 20.6 20.8 20.6 100 0.0 SSE 20 32 11 17 1019.1 1019.0 1.0
27/04:47pm 20.5 20.3 20.5 100 0.0 SSE 22 30 12 16 1019.0 1018.9 1.0
27/04:30pm 20.6 19.3 20.6 100 0.0 SSE 28 39 15 21 1019.0 1018.9 0.8
27/04:21pm 21.0 18.9 21.0 100 0.0 SSE 33 46 18 25 1019.1 1019.0 0.0
27/04:00pm 23.3 22.4 22.8 97 0.3 SSE 32 41 17 22 1018.6 1018.5 0.0
27/03:30pm 24.1 23.3 23.4 96 0.5 SSE 33 44 18 24 1018.8 1018.7 0.0
27/03:00pm 24.5 24.7 23.5 94 0.7 SSE 28 37 15 20 1018.7 1018.6 0.0
27/02:30pm 25.4 25.7 23.6 90 1.2 SSE 28 37 15 20 1018.7 1018.6 0.0
27/02:00pm 26.1 27.4 24.1 89 1.4 SSE 24 32 13 17 1018.8 1018.7 0.0
27/01:30pm 25.3 26.9 23.9 92 1.0 S 22 28 12 15 1019.1 1019.0 0.0
27/01:00pm 25.6 27.0 24.2 92 1.0 SSE 24 30 13 16 1019.4 1019.3 0.0
27/12:30pm 25.1 26.8 24.1 94 0.7 S 22 30 12 16 1019.7 1019.6 0.0
27/12:00pm 24.3 23.9 23.1 93 0.8 SSW 30 39 16 21 1019.9 1019.8 0.0
27/11:30am 25.2 25.4 22.7 86 1.7 SSE 26 33 14 18 1020.0 1019.9 0.0
27/11:00am 25.0 25.3 23.6 92 1.0 S 28 43 15 23 1020.3 1020.2 0.0
27/10:30am 25.2 25.5 24.3 95 0.6 SSE 30 37 16 20 1020.4 1020.3 0.0
27/10:00am 24.9 25.4 23.9 94 0.7 S 28 37 15 20 1020.6 1020.5 0.0
27/09:30am 24.4 25.3 23.9 97 0.3 S 26 33 14 18 1020.5 1020.4 0.0
27/09:00am 23.6 24.3 23.6 100 0.0 S 26 37 14 20 1020.5 1020.4 0.2
27/08:30am 23.2 23.6 23.2 100 0.0 SSW 26 33 14 18 1020.5 1020.4 0.2
27/08:00am 22.1 22.7 22.1 100 0.0 SSW 22 28 12 15 1020.3 1020.2 0.2
27/07:30am 21.6 22.3 21.6 100 0.0 SW 20 30 11 16 1020.1 1020.0 0.2
27/07:00am 21.2 21.7 21.2 100 0.0 SSW 20 28 11 15 1019.8 1019.7 0.2
27/06:30am 20.5 20.3 20.5 100 0.0 SSW 22 30 12 16 1019.3 1019.2 0.2
27/06:00am 20.2 20.4 20.2 100 0.0 SSW 19 24 10 13 1019.2 1019.1 0.2
27/05:30am 20.1 20.3 20.1 100 0.0 SSW 19 24 10 13 1019.1 1019.0 0.2
27/05:00am 20.2 20.2 20.2 100 0.0 SSW 20 26 11 14 1018.7 1018.6 0.2
27/04:30am 20.1 20.3 20.1 100 0.0 SSW 19 26 10 14 1018.5 1018.4 0.2
27/04:00am 20.2 20.4 20.2 100 0.0 SSW 19 26 10 14 1018.4 1018.3 0.2
27/03:30am 20.7 21.5 20.7 100 0.0 SSW 17 24 9 13 1018.4 1018.3 0.2
27/03:00am 22.7 24.6 22.7 100 0.0 E 17 24 9 13 1018.2 1018.1 0.2
27/02:30am 22.4 23.7 22.4 100 0.0 E 19 26 10 14 1018.2 1018.1 0.2
27/02:00am 20.1 22.7 20.1 100 0.0 SW 6 9 3 5 1018.7 1018.6 0.2
27/01:30am 20.1 21.8 20.1 100 0.0 SW 11 15 6 8 1018.8 1018.7 0.2
27/01:00am 20.2 22.3 20.2 100 0.0 SW 9 17 5 9 1018.9 1018.8 0.2
27/12:30am 20.9 22.6 20.9 100 0.0 SW 13 20 7 11 1019.2 1019.1 0.2
27/12:00am 23.2 25.2 23.0 99 0.1 SE 17 20 9 11 1019.4 1019.3 0.2
 
Date/Time
EST
Temp
°C
App
Temp
°C
Dew
Point
°C
Rel
Hum
%
Delta-T
°C
Wind Press
QNH
hPa
Press
MSL
hPa
Rain since
9am
mm
Dir  Spd
km/h
Gust
km/h
Spd
kts
Gust
kts
26/11:30pm 23.4 25.3 23.4 100 0.0 SE 19 26 10 14 1019.4 1019.3 0.2
26/11:00pm 22.0 22.5 22.0 100 0.0 SE 22 32 12 17 1019.7 1019.6 0.2
26/10:30pm 23.7 25.9 23.2 97 0.3 ESE 17 22 9 12 1019.7 1019.6 0.2
26/10:00pm 23.8 25.5 23.1 96 0.5 ESE 19 28 10 15 1020.0 1019.9 0.2
26/09:30pm 23.9 26.2 23.4 97 0.3 ESE 17 26 9 14 1020.1 1020.0 0.2
26/09:00pm 24.0 26.4 23.7 98 0.2 ESE 17 22 9 12 1020.0 1019.9 0.2
26/08:30pm 23.9 26.0 23.7 99 0.1 ESE 19 24 10 13 1020.0 1019.9 0.2
26/08:00pm 24.0 26.0 24.0 100 0.0 ESE 20 24 11 13 1019.6 1019.5 0.2

Latest Capital City Observations: Canberra | Sydney | Melbourne | Brisbane | Adelaide | Perth | Hobart | Darwin

Other formats

Comma delimited format used in spreadsheet applications
http://www.bom.gov.au/fwo/IDQ60901/IDQ60901.94569.axf

JavaScript Object Notation format (JSON) in row-major order
http://www.bom.gov.au/fwo/IDQ60901/IDQ60901.94569.json

Data quality

Most of these data are generated automatically and are frequently updated. Quality checks on data are not normally performed. It is possible for incorrect values to appear. Refer to information at About Latest Weather Observations and please check the disclaimer before using these data.